Tripoli, Lebanon

11:55 PM EEST on April 24, 2017 (GMT +0300)
Marsad Qalamoun - North Lebanon - by Ahmad Hassan | | Change Station

Elev 20 ft 34.39 °N, 35.79 °E | Updated 14 minutes ago

Clear
Clear
61.0 °F
Feels Like 61.0 °F
N
2.0
Wind Variable Wind from SE
Gusts 2.0 mph

Today
High -- | Low -- °F
--% Chance of Precip.
Yesterday
High -- | Low -- °F
Precip. -- in
Pressure 30.15 in
Visibility 5.0 miles
Clouds Clear
Dew Point 49 °F
Humidity 64%
Rainfall 0.00 in
Snow Depth Not available.
5:54 AM 7:15 PM
Waning Crescent, 4% visible
METAR OLBA 241900Z 04005KT 360V100 8000 SKC 18/09 Q1021 NOSIG
Pressure 30.15 in
Visibility 5.0 miles
Clouds Clear
Dew Point 49 °F
Humidity 64%
Rainfall 0.00 in
Snow Depth Not available.
5:54 AM 7:15 PM
Waning Crescent, 4% visible
METAR OLBA 241900Z 04005KT 360V100 8000 SKC 18/09 Q1021 NOSIG

Get Severe Weather Alerts

Thanks for signing up!

Be on the lookout for a verification email in your inbox.

You'll start receiving the daily forecast at 8 AM.

×

10-Day Weather Forecast

No radar image for this location.
×

Almanac

Astronomy

Apr. 24, 2017 Rise Set
Actual Time
Civil Twilight
Nautical Twilight
Astronomical Twilight
Moon
Length of Visible Light
Length of Day
Tomorrow will be .
, % of the Moon is Illuminated

Today's Extremes

Country Highs Country Lows

Community

WunderPhotos

WunderBlog® & News

Nearby

Air Quality

  Air Quality AQ Index Pollutant
Not available.

Snow Depth

Station Depth Elevation

Earthquake Activity

City Distance Mag. Time & Date
Minimum magnitude displayed is 2.5.

Coastal Water Temperatures

Place Temperature

Stations

Nearby Weather Stations

Station Location Temp. Windchill Dew Point Humidity Wind Precip. Elev Updated Type